sensor_id;sensor_type;location;lat;lon;timestamp;temperature;humidity
61641;HTU21D;62201;49.966;8.342;2023-02-12T00:01:44;5.76;101.47
61641;HTU21D;62201;49.966;8.342;2023-02-12T00:04:10;5.77;101.53
61641;HTU21D;62201;49.966;8.342;2023-02-12T00:06:37;5.78;101.72
61641;HTU21D;62201;49.966;8.342;2023-02-12T00:09:03;5.79;101.60
61641;HTU21D;62201;49.966;8.342;2023-02-12T00:11:28;5.80;101.24
61641;HTU21D;62201;49.966;8.342;2023-02-12T00:13:55;5.81;101.29
61641;HTU21D;62201;49.966;8.342;2023-02-12T00:16:25;5.83;100.99
61641;HTU21D;62201;49.966;8.342;2023-02-12T00:18:55;5.84;100.62
61641;HTU21D;62201;49.966;8.342;2023-02-12T00:21:21;5.75;101.08
61641;HTU21D;62201;49.966;8.342;2023-02-12T00:23:47;5.68;102.65
61641;HTU21D;62201;49.966;8.342;2023-02-12T00:26:15;5.63;103.01
61641;HTU21D;62201;49.966;8.342;2023-02-12T00:28:41;5.60;103.50
61641;HTU21D;62201;49.966;8.342;2023-02-12T00:31:09;5.61;103.45
61641;HTU21D;62201;49.966;8.342;2023-02-12T00:33:35;5.61;104.02
61641;HTU21D;62201;49.966;8.342;2023-02-12T00:36:00;5.60;104.01
61641;HTU21D;62201;49.966;8.342;2023-02-12T00:38:26;5.64;104.02
61641;HTU21D;62201;49.966;8.342;2023-02-12T00:40:51;5.68;103.73
61641;HTU21D;62201;49.966;8.342;2023-02-12T00:43:17;5.71;103.34
61641;HTU21D;62201;49.966;8.342;2023-02-12T00:45:44;5.71;103.06
61641;HTU21D;62201;49.966;8.342;2023-02-12T00:48:09;5.72;103.10
61641;HTU21D;62201;49.966;8.342;2023-02-12T00:50:35;5.74;102.98
61641;HTU21D;62201;49.966;8.342;2023-02-12T00:53:00;5.72;103.40
61641;HTU21D;62201;49.966;8.342;2023-02-12T00:55:26;5.68;104.38
61641;HTU21D;62201;49.966;8.342;2023-02-12T00:57:51;5.64;104.47
61641;HTU21D;62201;49.966;8.342;2023-02-12T01:00:16;5.67;104.56
61641;HTU21D;62201;49.966;8.342;2023-02-12T01:02:42;5.65;104.62
61641;HTU21D;62201;49.966;8.342;2023-02-12T01:05:07;5.65;105.02
61641;HTU21D;62201;49.966;8.342;2023-02-12T01:07:33;5.65;105.08
61641;HTU21D;62201;49.966;8.342;2023-02-12T01:09:58;5.66;105.80
61641;HTU21D;62201;49.966;8.342;2023-02-12T01:12:23;5.63;105.28
61641;HTU21D;62201;49.966;8.342;2023-02-12T01:14:49;5.57;105.51
61641;HTU21D;62201;49.966;8.342;2023-02-12T01:17:14;5.54;105.87
61641;HTU21D;62201;49.966;8.342;2023-02-12T01:19:39;5.51;106.24
61641;HTU21D;62201;49.966;8.342;2023-02-12T01:22:05;5.51;106.70
61641;HTU21D;62201;49.966;8.342;2023-02-12T01:24:30;5.53;106.71
61641;HTU21D;62201;49.966;8.342;2023-02-12T01:26:56;5.54;106.85
61641;HTU21D;62201;49.966;8.342;2023-02-12T01:29:21;5.54;106.82
61641;HTU21D;62201;49.966;8.342;2023-02-12T01:31:47;5.55;106.59
61641;HTU21D;62201;49.966;8.342;2023-02-12T01:34:12;5.53;107.07
61641;HTU21D;62201;49.966;8.342;2023-02-12T01:36:38;5.52;107.02
61641;HTU21D;62201;49.966;8.342;2023-02-12T01:39:05;5.52;107.14
61641;HTU21D;62201;49.966;8.342;2023-02-12T01:41:40;5.50;108.56
61641;HTU21D;62201;49.966;8.342;2023-02-12T01:44:16;5.51;108.86
61641;HTU21D;62201;49.966;8.342;2023-02-12T01:46:44;5.52;108.31
61641;HTU21D;62201;49.966;8.342;2023-02-12T01:49:19;5.56;107.95
61641;HTU21D;62201;49.966;8.342;2023-02-12T01:51:46;5.59;107.68
61641;HTU21D;62201;49.966;8.342;2023-02-12T01:54:14;5.61;107.36
61641;HTU21D;62201;49.966;8.342;2023-02-12T01:56:41;5.62;107.16
61641;HTU21D;62201;49.966;8.342;2023-02-12T01:59:07;5.64;107.19
61641;HTU21D;62201;49.966;8.342;2023-02-12T02:01:33;5.64;107.11
61641;HTU21D;62201;49.966;8.342;2023-02-12T02:04:12;5.68;107.14
61641;HTU21D;62201;49.966;8.342;2023-02-12T02:06:46;5.68;106.94
61641;HTU21D;62201;49.966;8.342;2023-02-12T02:09:13;5.68;106.92
61641;HTU21D;62201;49.966;8.342;2023-02-12T02:11:38;5.71;107.17
61641;HTU21D;62201;49.966;8.342;2023-02-12T02:14:22;5.79;107.14
61641;HTU21D;62201;49.966;8.342;2023-02-12T02:25:01;5.86;105.98
61641;HTU21D;62201;49.966;8.342;2023-02-12T02:27:42;5.85;105.82
61641;HTU21D;62201;49.966;8.342;2023-02-12T02:35:54;5.92;105.63
61641;HTU21D;62201;49.966;8.342;2023-02-12T02:38:44;5.94;105.64
61641;HTU21D;62201;49.966;8.342;2023-02-12T02:41:34;5.97;105.41
61641;HTU21D;62201;49.966;8.342;2023-02-12T02:44:04;5.99;105.08
61641;HTU21D;62201;49.966;8.342;2023-02-12T02:46:35;6.00;104.88
61641;HTU21D;62201;49.966;8.342;2023-02-12T02:49:06;5.99;104.89
61641;HTU21D;62201;49.966;8.342;2023-02-12T02:51:39;5.99;105.00
61641;HTU21D;62201;49.966;8.342;2023-02-12T02:54:09;5.92;104.93
61641;HTU21D;62201;49.966;8.342;2023-02-12T02:56:38;5.86;106.11
61641;HTU21D;62201;49.966;8.342;2023-02-12T02:59:09;5.82;106.88
61641;HTU21D;62201;49.966;8.342;2023-02-12T03:01:40;5.79;107.07
61641;HTU21D;62201;49.966;8.342;2023-02-12T03:04:19;5.76;107.20
61641;HTU21D;62201;49.966;8.342;2023-02-12T03:06:57;5.76;107.34
61641;HTU21D;62201;49.966;8.342;2023-02-12T03:09:28;5.79;107.45
61641;HTU21D;62201;49.966;8.342;2023-02-12T03:11:58;5.80;107.49
61641;HTU21D;62201;49.966;8.342;2023-02-12T03:14:28;5.81;107.59
61641;HTU21D;62201;49.966;8.342;2023-02-12T03:17:01;5.84;107.64
61641;HTU21D;62201;49.966;8.342;2023-02-12T03:19:34;5.83;107.41
61641;HTU21D;62201;49.966;8.342;2023-02-12T03:22:05;5.84;107.22
61641;HTU21D;62201;49.966;8.342;2023-02-12T03:24:36;5.86;107.07
61641;HTU21D;62201;49.966;8.342;2023-02-12T03:27:08;5.87;107.09
61641;HTU21D;62201;49.966;8.342;2023-02-12T03:29:34;5.86;106.90
61641;HTU21D;62201;49.966;8.342;2023-02-12T03:37:03;5.87;107.21
61641;HTU21D;62201;49.966;8.342;2023-02-12T03:42:10;5.83;107.35
61641;HTU21D;62201;49.966;8.342;2023-02-12T03:44:52;5.82;107.34
61641;HTU21D;62201;49.966;8.342;2023-02-12T03:50:06;5.82;107.85
61641;HTU21D;62201;49.966;8.342;2023-02-12T03:52:33;5.84;107.75
61641;HTU21D;62201;49.966;8.342;2023-02-12T03:54:59;5.82;107.55
61641;HTU21D;62201;49.966;8.342;2023-02-12T03:57:27;5.84;107.66
61641;HTU21D;62201;49.966;8.342;2023-02-12T03:59:57;5.85;107.73
61641;HTU21D;62201;49.966;8.342;2023-02-12T04:02:23;5.84;107.72
61641;HTU21D;62201;49.966;8.342;2023-02-12T04:04:49;5.85;107.88
61641;HTU21D;62201;49.966;8.342;2023-02-12T04:07:14;5.89;107.91
61641;HTU21D;62201;49.966;8.342;2023-02-12T04:09:40;5.92;107.79
61641;HTU21D;62201;49.966;8.342;2023-02-12T04:20:51;5.94;107.52
61641;HTU21D;62201;49.966;8.342;2023-02-12T04:28:40;5.97;107.50
61641;HTU21D;62201;49.966;8.342;2023-02-12T04:31:12;6.00;107.29
61641;HTU21D;62201;49.966;8.342;2023-02-12T04:33:46;6.05;107.04
61641;HTU21D;62201;49.966;8.342;2023-02-12T04:36:23;6.06;106.63
61641;HTU21D;62201;49.966;8.342;2023-02-12T04:39:07;6.06;106.41
61641;HTU21D;62201;49.966;8.342;2023-02-12T04:41:37;6.06;106.43
61641;HTU21D;62201;49.966;8.342;2023-02-12T04:44:33;6.02;105.90
61641;HTU21D;62201;49.966;8.342;2023-02-12T04:46:59;5.99;105.98
61641;HTU21D;62201;49.966;8.342;2023-02-12T04:49:25;5.95;105.80
61641;HTU21D;62201;49.966;8.342;2023-02-12T04:51:51;5.93;105.87
61641;HTU21D;62201;49.966;8.342;2023-02-12T04:54:18;5.90;105.87
61641;HTU21D;62201;49.966;8.342;2023-02-12T04:56:44;5.86;105.92
61641;HTU21D;62201;49.966;8.342;2023-02-12T04:59:11;5.85;105.99
61641;HTU21D;62201;49.966;8.342;2023-02-12T05:01:38;5.83;106.24
61641;HTU21D;62201;49.966;8.342;2023-02-12T05:04:05;5.83;106.30
61641;HTU21D;62201;49.966;8.342;2023-02-12T05:06:33;5.81;106.48
61641;HTU21D;62201;49.966;8.342;2023-02-12T05:08:58;5.81;106.40
61641;HTU21D;62201;49.966;8.342;2023-02-12T05:11:24;5.80;106.55
61641;HTU21D;62201;49.966;8.342;2023-02-12T05:13:50;5.83;106.69
61641;HTU21D;62201;49.966;8.342;2023-02-12T05:16:16;5.84;106.50
61641;HTU21D;62201;49.966;8.342;2023-02-12T05:18:42;5.84;106.22
61641;HTU21D;62201;49.966;8.342;2023-02-12T05:21:07;5.83;106.30
61641;HTU21D;62201;49.966;8.342;2023-02-12T05:23:35;5.83;106.57
61641;HTU21D;62201;49.966;8.342;2023-02-12T05:26:02;5.84;106.21
61641;HTU21D;62201;49.966;8.342;2023-02-12T05:28:29;5.84;106.05
61641;HTU21D;62201;49.966;8.342;2023-02-12T05:30:54;5.82;106.05
61641;HTU21D;62201;49.966;8.342;2023-02-12T05:33:23;5.81;106.03
61641;HTU21D;62201;49.966;8.342;2023-02-12T05:35:48;5.76;106.53
61641;HTU21D;62201;49.966;8.342;2023-02-12T05:38:14;5.75;106.95
61641;HTU21D;62201;49.966;8.342;2023-02-12T05:40:39;5.74;106.73
61641;HTU21D;62201;49.966;8.342;2023-02-12T05:43:07;5.72;106.85
61641;HTU21D;62201;49.966;8.342;2023-02-12T05:45:32;5.69;106.88
61641;HTU21D;62201;49.966;8.342;2023-02-12T05:47:57;5.69;107.30
61641;HTU21D;62201;49.966;8.342;2023-02-12T05:50:23;5.68;107.51
61641;HTU21D;62201;49.966;8.342;2023-02-12T05:52:49;5.69;107.40
61641;HTU21D;62201;49.966;8.342;2023-02-12T05:55:14;5.68;107.28
61641;HTU21D;62201;49.966;8.342;2023-02-12T05:57:39;5.61;107.78
61641;HTU21D;62201;49.966;8.342;2023-02-12T06:00:06;5.56;108.62
61641;HTU21D;62201;49.966;8.342;2023-02-12T06:02:33;5.49;108.54
61641;HTU21D;62201;49.966;8.342;2023-02-12T06:04:58;5.47;108.65
61641;HTU21D;62201;49.966;8.342;2023-02-12T06:07:23;5.42;109.50
61641;HTU21D;62201;49.966;8.342;2023-02-12T06:09:49;5.38;109.89
61641;HTU21D;62201;49.966;8.342;2023-02-12T06:12:14;5.38;110.32
61641;HTU21D;62201;49.966;8.342;2023-02-12T06:14:40;5.36;110.28
61641;HTU21D;62201;49.966;8.342;2023-02-12T06:17:05;5.34;110.43
61641;HTU21D;62201;49.966;8.342;2023-02-12T06:19:31;5.34;110.52
61641;HTU21D;62201;49.966;8.342;2023-02-12T06:21:56;5.35;110.23
61641;HTU21D;62201;49.966;8.342;2023-02-12T06:24:22;5.34;110.10
61641;HTU21D;62201;49.966;8.342;2023-02-12T06:26:50;5.37;110.17
61641;HTU21D;62201;49.966;8.342;2023-02-12T06:29:17;5.40;110.41
61641;HTU21D;62201;49.966;8.342;2023-02-12T06:31:43;5.53;112.80
61641;HTU21D;62201;49.966;8.342;2023-02-12T06:34:10;5.57;111.52
61641;HTU21D;62201;49.966;8.342;2023-02-12T06:36:38;5.68;111.37
61641;HTU21D;62201;49.966;8.342;2023-02-12T06:39:04;5.72;110.16
61641;HTU21D;62201;49.966;8.342;2023-02-12T06:41:29;5.75;109.23
61641;HTU21D;62201;49.966;8.342;2023-02-12T06:43:55;5.78;108.97
61641;HTU21D;62201;49.966;8.342;2023-02-12T06:46:20;5.79;108.63
61641;HTU21D;62201;49.966;8.342;2023-02-12T06:48:46;5.77;108.52
61641;HTU21D;62201;49.966;8.342;2023-02-12T06:51:14;5.77;108.40
61641;HTU21D;62201;49.966;8.342;2023-02-12T06:53:40;5.75;108.57
61641;HTU21D;62201;49.966;8.342;2023-02-12T06:56:08;5.77;108.96
61641;HTU21D;62201;49.966;8.342;2023-02-12T06:58:44;5.81;108.87
61641;HTU21D;62201;49.966;8.342;2023-02-12T07:01:19;5.83;108.52
61641;HTU21D;62201;49.966;8.342;2023-02-12T07:03:56;5.83;108.31
61641;HTU21D;62201;49.966;8.342;2023-02-12T07:06:23;5.85;108.34
61641;HTU21D;62201;49.966;8.342;2023-02-12T07:08:48;5.89;108.37
61641;HTU21D;62201;49.966;8.342;2023-02-12T07:11:14;5.90;108.11
61641;HTU21D;62201;49.966;8.342;2023-02-12T07:13:40;5.92;108.10
61641;HTU21D;62201;49.966;8.342;2023-02-12T07:16:09;5.93;107.85
61641;HTU21D;62201;49.966;8.342;2023-02-12T07:18:35;5.95;107.59
61641;HTU21D;62201;49.966;8.342;2023-02-12T07:21:02;5.98;107.63
61641;HTU21D;62201;49.966;8.342;2023-02-12T07:23:28;6.02;107.37
61641;HTU21D;62201;49.966;8.342;2023-02-12T07:25:59;6.07;107.27
61641;HTU21D;62201;49.966;8.342;2023-02-12T07:28:24;6.10;106.99
61641;HTU21D;62201;49.966;8.342;2023-02-12T07:30:50;6.16;106.75
61641;HTU21D;62201;49.966;8.342;2023-02-12T07:33:16;6.22;106.28
61641;HTU21D;62201;49.966;8.342;2023-02-12T07:35:42;6.24;105.24
61641;HTU21D;62201;49.966;8.342;2023-02-12T07:38:07;6.25;105.07
61641;HTU21D;62201;49.966;8.342;2023-02-12T07:40:33;6.33;105.85
61641;HTU21D;62201;49.966;8.342;2023-02-12T07:42:58;6.39;105.69
61641;HTU21D;62201;49.966;8.342;2023-02-12T07:45:24;6.43;105.37
61641;HTU21D;62201;49.966;8.342;2023-02-12T07:47:49;6.48;105.31
61641;HTU21D;62201;49.966;8.342;2023-02-12T07:50:15;6.56;105.25
61641;HTU21D;62201;49.966;8.342;2023-02-12T07:52:41;6.63;104.79
61641;HTU21D;62201;49.966;8.342;2023-02-12T07:55:06;6.61;104.39
61641;HTU21D;62201;49.966;8.342;2023-02-12T07:57:33;6.66;104.50
61641;HTU21D;62201;49.966;8.342;2023-02-12T07:59:59;6.72;104.53
61641;HTU21D;62201;49.966;8.342;2023-02-12T08:02:24;6.80;103.90
61641;HTU21D;62201;49.966;8.342;2023-02-12T08:04:54;6.84;103.66
61641;HTU21D;62201;49.966;8.342;2023-02-12T08:07:20;6.82;103.26
61641;HTU21D;62201;49.966;8.342;2023-02-12T08:09:45;6.85;103.65
61641;HTU21D;62201;49.966;8.342;2023-02-12T08:12:11;6.90;103.19
61641;HTU21D;62201;49.966;8.342;2023-02-12T08:14:36;7.00;103.21
61641;HTU21D;62201;49.966;8.342;2023-02-12T08:17:02;7.12;102.76
61641;HTU21D;62201;49.966;8.342;2023-02-12T08:19:27;7.19;102.17
61641;HTU21D;62201;49.966;8.342;2023-02-12T08:21:54;7.22;100.77
61641;HTU21D;62201;49.966;8.342;2023-02-12T08:24:20;7.22;101.56
61641;HTU21D;62201;49.966;8.342;2023-02-12T08:26:49;7.20;101.66
61641;HTU21D;62201;49.966;8.342;2023-02-12T08:29:19;7.28;101.14
61641;HTU21D;62201;49.966;8.342;2023-02-12T08:31:47;7.35;100.24
61641;HTU21D;62201;49.966;8.342;2023-02-12T08:36:40;7.38;100.86
61641;HTU21D;62201;49.966;8.342;2023-02-12T08:39:07;7.43;100.51
61641;HTU21D;62201;49.966;8.342;2023-02-12T08:41:33;7.61;100.24
61641;HTU21D;62201;49.966;8.342;2023-02-12T08:44:01;7.81;99.55
61641;HTU21D;62201;49.966;8.342;2023-02-12T08:46:28;7.98;98.18
61641;HTU21D;62201;49.966;8.342;2023-02-12T08:48:59;8.11;97.37
61641;HTU21D;62201;49.966;8.342;2023-02-12T08:51:27;8.09;96.23
61641;HTU21D;62201;49.966;8.342;2023-02-12T08:53:56;8.08;96.44
61641;HTU21D;62201;49.966;8.342;2023-02-12T08:56:22;8.15;95.77
61641;HTU21D;62201;49.966;8.342;2023-02-12T08:58:48;8.20;95.62
61641;HTU21D;62201;49.966;8.342;2023-02-12T09:01:16;8.12;96.58
61641;HTU21D;62201;49.966;8.342;2023-02-12T09:03:43;8.17;95.78
61641;HTU21D;62201;49.966;8.342;2023-02-12T09:06:09;8.21;95.71
61641;HTU21D;62201;49.966;8.342;2023-02-12T09:08:35;8.21;93.67
61641;HTU21D;62201;49.966;8.342;2023-02-12T09:11:09;8.30;94.72
61641;HTU21D;62201;49.966;8.342;2023-02-12T09:13:35;8.52;93.96
61641;HTU21D;62201;49.966;8.342;2023-02-12T09:16:02;8.60;93.08
61641;HTU21D;62201;49.966;8.342;2023-02-12T09:18:28;8.48;93.50
61641;HTU21D;62201;49.966;8.342;2023-02-12T09:20:53;8.49;94.09
61641;HTU21D;62201;49.966;8.342;2023-02-12T09:23:19;8.46;92.74
61641;HTU21D;62201;49.966;8.342;2023-02-12T09:25:45;8.61;93.01
61641;HTU21D;62201;49.966;8.342;2023-02-12T09:28:12;8.80;92.54
61641;HTU21D;62201;49.966;8.342;2023-02-12T09:30:38;8.88;92.79
61641;HTU21D;62201;49.966;8.342;2023-02-12T09:33:04;8.97;91.66
61641;HTU21D;62201;49.966;8.342;2023-02-12T09:35:33;9.08;91.27
61641;HTU21D;62201;49.966;8.342;2023-02-12T09:37:59;8.91;91.93
61641;HTU21D;62201;49.966;8.342;2023-02-12T09:40:50;9.00;91.76
61641;HTU21D;62201;49.966;8.342;2023-02-12T09:43:43;8.75;92.77
61641;HTU21D;62201;49.966;8.342;2023-02-12T09:46:18;8.57;94.36
61641;HTU21D;62201;49.966;8.342;2023-02-12T09:49:07;8.71;93.88
61641;HTU21D;62201;49.966;8.342;2023-02-12T09:51:35;8.71;92.50
61641;HTU21D;62201;49.966;8.342;2023-02-12T09:56:38;8.92;91.94
61641;HTU21D;62201;49.966;8.342;2023-02-12T09:59:06;8.92;91.48
61641;HTU21D;62201;49.966;8.342;2023-02-12T10:01:32;8.86;92.12
61641;HTU21D;62201;49.966;8.342;2023-02-12T10:03:58;8.87;91.63
61641;HTU21D;62201;49.966;8.342;2023-02-12T10:06:29;8.76;91.85
61641;HTU21D;62201;49.966;8.342;2023-02-12T10:11:55;8.95;92.27
61641;HTU21D;62201;49.966;8.342;2023-02-12T10:14:56;8.96;92.21
61641;HTU21D;62201;49.966;8.342;2023-02-12T10:25:48;8.98;93.93
61641;HTU21D;62201;49.966;8.342;2023-02-12T10:30:56;9.14;92.98
61641;HTU21D;62201;49.966;8.342;2023-02-12T10:33:40;9.26;92.83
61641;HTU21D;62201;49.966;8.342;2023-02-12T10:36:17;9.35;92.01
61641;HTU21D;62201;49.966;8.342;2023-02-12T10:38:48;9.50;90.95
61641;HTU21D;62201;49.966;8.342;2023-02-12T10:41:15;9.50;91.19
61641;HTU21D;62201;49.966;8.342;2023-02-12T10:43:40;9.59;91.24
61641;HTU21D;62201;49.966;8.342;2023-02-12T10:46:13;9.53;89.56
61641;HTU21D;62201;49.966;8.342;2023-02-12T10:48:39;9.47;90.75
61641;HTU21D;62201;49.966;8.342;2023-02-12T10:53:46;9.62;91.51
61641;HTU21D;62201;49.966;8.342;2023-02-12T10:56:20;9.83;90.79
61641;HTU21D;62201;49.966;8.342;2023-02-12T10:59:21;9.75;90.48
61641;HTU21D;62201;49.966;8.342;2023-02-12T11:02:01;9.89;89.72
61641;HTU21D;62201;49.966;8.342;2023-02-12T11:04:42;10.00;87.69
61641;HTU21D;62201;49.966;8.342;2023-02-12T11:07:23;9.94;90.12
61641;HTU21D;62201;49.966;8.342;2023-02-12T11:09:52;9.97;89.26
61641;HTU21D;62201;49.966;8.342;2023-02-12T11:12:46;9.99;88.67
61641;HTU21D;62201;49.966;8.342;2023-02-12T11:15:27;10.19;88.55
61641;HTU21D;62201;49.966;8.342;2023-02-12T11:18:28;10.31;87.19
61641;HTU21D;62201;49.966;8.342;2023-02-12T11:21:11;10.29;87.85
61641;HTU21D;62201;49.966;8.342;2023-02-12T11:33:38;10.44;86.02
61641;HTU21D;62201;49.966;8.342;2023-02-12T11:36:24;10.45;85.61
61641;HTU21D;62201;49.966;8.342;2023-02-12T11:39:02;10.42;85.67
61641;HTU21D;62201;49.966;8.342;2023-02-12T11:41:56;10.44;85.21
61641;HTU21D;62201;49.966;8.342;2023-02-12T11:44:47;10.50;85.15
61641;HTU21D;62201;49.966;8.342;2023-02-12T11:47:26;10.45;85.13
61641;HTU21D;62201;49.966;8.342;2023-02-12T11:50:02;10.51;84.96
61641;HTU21D;62201;49.966;8.342;2023-02-12T11:52:36;10.49;84.92
61641;HTU21D;62201;49.966;8.342;2023-02-12T11:55:40;10.36;85.16
61641;HTU21D;62201;49.966;8.342;2023-02-12T12:01:27;10.38;85.13
61641;HTU21D;62201;49.966;8.342;2023-02-12T12:09:59;10.68;84.07
61641;HTU21D;62201;49.966;8.342;2023-02-12T12:12:47;10.78;84.19
61641;HTU21D;62201;49.966;8.342;2023-02-12T12:16:07;10.92;82.74
61641;HTU21D;62201;49.966;8.342;2023-02-12T12:18:50;10.81;83.76
61641;HTU21D;62201;49.966;8.342;2023-02-12T12:24:51;10.67;83.50
61641;HTU21D;62201;49.966;8.342;2023-02-12T12:27:55;10.70;83.27
61641;HTU21D;62201;49.966;8.342;2023-02-12T12:33:55;10.81;82.64
61641;HTU21D;62201;49.966;8.342;2023-02-12T12:36:46;10.85;82.07
61641;HTU21D;62201;49.966;8.342;2023-02-12T12:48:51;11.05;81.88
61641;HTU21D;62201;49.966;8.342;2023-02-12T13:03:56;10.79;81.27
61641;HTU21D;62201;49.966;8.342;2023-02-12T13:27:09;10.69;80.03
61641;HTU21D;62201;49.966;8.342;2023-02-12T13:30:03;10.69;80.04
61641;HTU21D;62201;49.966;8.342;2023-02-12T13:32:50;10.60;80.36
61641;HTU21D;62201;49.966;8.342;2023-02-12T13:35:54;10.49;79.98
61641;HTU21D;62201;49.966;8.342;2023-02-12T13:39:29;10.38;80.13
61641;HTU21D;62201;49.966;8.342;2023-02-12T13:41:30;10.44;80.28
61641;HTU21D;62201;49.966;8.342;2023-02-12T13:52:48;10.40;80.64
61641;HTU21D;62201;49.966;8.342;2023-02-12T13:55:54;10.44;80.52
61641;HTU21D;62201;49.966;8.342;2023-02-12T13:58:46;10.33;81.03
61641;HTU21D;62201;49.966;8.342;2023-02-12T14:01:42;10.31;80.94
61641;HTU21D;62201;49.966;8.342;2023-02-12T14:04:24;10.33;80.97
61641;HTU21D;62201;49.966;8.342;2023-02-12T14:07:17;10.40;80.65
61641;HTU21D;62201;49.966;8.342;2023-02-12T14:14:54;10.58;79.94
61641;HTU21D;62201;49.966;8.342;2023-02-12T14:20:26;10.53;80.54
61641;HTU21D;62201;49.966;8.342;2023-02-12T14:23:23;10.49;80.67
61641;HTU21D;62201;49.966;8.342;2023-02-12T14:26:34;10.51;80.60
61641;HTU21D;62201;49.966;8.342;2023-02-12T14:29:25;10.49;80.69
61641;HTU21D;62201;49.966;8.342;2023-02-12T14:31:54;10.58;80.67
61641;HTU21D;62201;49.966;8.342;2023-02-12T14:34:38;10.52;80.43
61641;HTU21D;62201;49.966;8.342;2023-02-12T14:37:39;10.43;80.50
61641;HTU21D;62201;49.966;8.342;2023-02-12T14:43:41;10.41;80.43
61641;HTU21D;62201;49.966;8.342;2023-02-12T14:52:05;10.35;80.75
61641;HTU21D;62201;49.966;8.342;2023-02-12T15:03:12;10.35;81.27
61641;HTU21D;62201;49.966;8.342;2023-02-12T15:08:55;10.31;81.68
61641;HTU21D;62201;49.966;8.342;2023-02-12T15:14:19;10.33;81.01
61641;HTU21D;62201;49.966;8.342;2023-02-12T15:20:07;10.25;81.55
61641;HTU21D;62201;49.966;8.342;2023-02-12T15:22:40;10.27;81.32
61641;HTU21D;62201;49.966;8.342;2023-02-12T15:25:37;10.23;81.13
61641;HTU21D;62201;49.966;8.342;2023-02-12T15:28:34;10.24;81.28
61641;HTU21D;62201;49.966;8.342;2023-02-12T15:31:04;10.24;81.39
61641;HTU21D;62201;49.966;8.342;2023-02-12T15:33:40;10.34;81.04
61641;HTU21D;62201;49.966;8.342;2023-02-12T15:36:54;10.40;80.72
61641;HTU21D;62201;49.966;8.342;2023-02-12T15:39:20;10.46;80.24
61641;HTU21D;62201;49.966;8.342;2023-02-12T15:41:50;11.07;78.32
61641;HTU21D;62201;49.966;8.342;2023-02-12T15:44:28;11.25;76.65
61641;HTU21D;62201;49.966;8.342;2023-02-12T15:47:13;11.27;77.09
61641;HTU21D;62201;49.966;8.342;2023-02-12T15:50:02;11.27;76.02
61641;HTU21D;62201;49.966;8.342;2023-02-12T15:52:41;11.19;76.35
61641;HTU21D;62201;49.966;8.342;2023-02-12T15:55:24;10.90;77.10
61641;HTU21D;62201;49.966;8.342;2023-02-12T15:58:56;10.58;78.40
61641;HTU21D;62201;49.966;8.342;2023-02-12T16:01:05;10.45;78.95
61641;HTU21D;62201;49.966;8.342;2023-02-12T16:04:03;10.23;79.80
61641;HTU21D;62201;49.966;8.342;2023-02-12T16:06:31;9.98;80.65
61641;HTU21D;62201;49.966;8.342;2023-02-12T16:09:01;9.81;81.72
61641;HTU21D;62201;49.966;8.342;2023-02-12T16:11:45;9.74;82.14
61641;HTU21D;62201;49.966;8.342;2023-02-12T16:14:46;9.61;82.30
61641;HTU21D;62201;49.966;8.342;2023-02-12T16:17:30;9.47;83.23
61641;HTU21D;62201;49.966;8.342;2023-02-12T16:20:05;9.35;83.75
61641;HTU21D;62201;49.966;8.342;2023-02-12T16:22:46;9.25;84.92
61641;HTU21D;62201;49.966;8.342;2023-02-12T16:25:28;9.16;85.33
61641;HTU21D;62201;49.966;8.342;2023-02-12T16:28:18;9.05;86.16
61641;HTU21D;62201;49.966;8.342;2023-02-12T16:31:33;8.96;86.12
61641;HTU21D;62201;49.966;8.342;2023-02-12T16:36:44;8.74;87.53
61641;HTU21D;62201;49.966;8.342;2023-02-12T16:42:16;8.55;88.99
61641;HTU21D;62201;49.966;8.342;2023-02-12T16:44:53;8.49;89.92
61641;HTU21D;62201;49.966;8.342;2023-02-12T16:47:39;8.43;89.86
61641;HTU21D;62201;49.966;8.342;2023-02-12T16:50:46;8.34;91.08
61641;HTU21D;62201;49.966;8.342;2023-02-12T16:56:14;8.20;91.91
61641;HTU21D;62201;49.966;8.342;2023-02-12T16:58:48;8.14;92.57
61641;HTU21D;62201;49.966;8.342;2023-02-12T17:01:29;8.07;92.88
61641;HTU21D;62201;49.966;8.342;2023-02-12T17:06:43;7.93;94.07
61641;HTU21D;62201;49.966;8.342;2023-02-12T17:09:14;7.86;95.01
61641;HTU21D;62201;49.966;8.342;2023-02-12T17:11:39;7.82;94.62
61641;HTU21D;62201;49.966;8.342;2023-02-12T17:14:10;7.82;96.18
61641;HTU21D;62201;49.966;8.342;2023-02-12T17:16:37;7.75;95.86
61641;HTU21D;62201;49.966;8.342;2023-02-12T17:19:02;7.73;97.00
61641;HTU21D;62201;49.966;8.342;2023-02-12T17:21:30;7.72;96.62
61641;HTU21D;62201;49.966;8.342;2023-02-12T17:23:59;7.67;97.17
61641;HTU21D;62201;49.966;8.342;2023-02-12T17:26:34;7.62;97.80
61641;HTU21D;62201;49.966;8.342;2023-02-12T17:29:13;7.62;99.02
61641;HTU21D;62201;49.966;8.342;2023-02-12T17:31:50;7.56;98.55
61641;HTU21D;62201;49.966;8.342;2023-02-12T17:34:24;7.47;99.30
61641;HTU21D;62201;49.966;8.342;2023-02-12T17:36:52;7.47;101.12
61641;HTU21D;62201;49.966;8.342;2023-02-12T17:39:21;7.41;100.47
61641;HTU21D;62201;49.966;8.342;2023-02-12T17:41:50;7.37;100.61
61641;HTU21D;62201;49.966;8.342;2023-02-12T17:44:23;7.34;100.49
61641;HTU21D;62201;49.966;8.342;2023-02-12T17:46:55;7.27;101.44
61641;HTU21D;62201;49.966;8.342;2023-02-12T17:49:26;7.25;102.12
61641;HTU21D;62201;49.966;8.342;2023-02-12T17:52:34;7.23;103.09
61641;HTU21D;62201;49.966;8.342;2023-02-12T17:55:20;7.10;102.44
61641;HTU21D;62201;49.966;8.342;2023-02-12T17:57:55;6.98;103.07
61641;HTU21D;62201;49.966;8.342;2023-02-12T18:00:35;6.91;103.78
61641;HTU21D;62201;49.966;8.342;2023-02-12T18:03:19;6.87;104.53
61641;HTU21D;62201;49.966;8.342;2023-02-12T18:06:07;6.84;105.31
61641;HTU21D;62201;49.966;8.342;2023-02-12T18:08:52;6.79;105.27
61641;HTU21D;62201;49.966;8.342;2023-02-12T18:11:30;6.74;106.94
61641;HTU21D;62201;49.966;8.342;2023-02-12T18:14:10;6.78;107.71
61641;HTU21D;62201;49.966;8.342;2023-02-12T18:16:54;6.71;106.67
61641;HTU21D;62201;49.966;8.342;2023-02-12T18:19:40;6.67;107.49
61641;HTU21D;62201;49.966;8.342;2023-02-12T18:22:06;6.70;108.11
61641;HTU21D;62201;49.966;8.342;2023-02-12T18:24:41;6.66;107.17
61641;HTU21D;62201;49.966;8.342;2023-02-12T18:27:14;6.60;108.11
61641;HTU21D;62201;49.966;8.342;2023-02-12T18:29:52;6.61;109.19
61641;HTU21D;62201;49.966;8.342;2023-02-12T18:32:24;6.58;108.81
61641;HTU21D;62201;49.966;8.342;2023-02-12T18:34:58;6.53;108.66
61641;HTU21D;62201;49.966;8.342;2023-02-12T18:37:36;6.53;109.86
61641;HTU21D;62201;49.966;8.342;2023-02-12T18:40:12;6.51;109.50
61641;HTU21D;62201;49.966;8.342;2023-02-12T18:42:46;6.48;109.97
61641;HTU21D;62201;49.966;8.342;2023-02-12T18:45:12;6.42;109.78
61641;HTU21D;62201;49.966;8.342;2023-02-12T18:47:47;6.41;110.01
61641;HTU21D;62201;49.966;8.342;2023-02-12T18:50:18;6.37;110.38
61641;HTU21D;62201;49.966;8.342;2023-02-12T18:53:05;6.43;111.44
61641;HTU21D;62201;49.966;8.342;2023-02-12T18:55:43;6.38;110.78
61641;HTU21D;62201;49.966;8.342;2023-02-12T18:58:09;6.36;111.23
61641;HTU21D;62201;49.966;8.342;2023-02-12T19:00:58;6.30;112.27